Observations for SAINT-BRIEUC ARMOR, France (LFRT)

LFRT 202200Z AUTO 24005KT 210V290 9999 OVC013 11/09 Q1018   
LFRT 202130Z AUTO 23006KT 160V270 9999 OVC014 11/09 Q1018   
LFRT 202100Z AUTO 24004KT 180V280 9999 BKN014 10/09 Q1019   
LFRT 202030Z AUTO 25005KT 210V280 9999 SCT014 10/09 Q1019   
LFRT 202000Z AUTO 24006KT 190V280 CAVOK 10/09 Q1019 
LFRT 201930Z AUTO 23006KT 200V270 9999 FEW014 BKN240 10/09 Q1019
LFRT 201900Z AUTO 23005KT 180V280 CAVOK 10/09 Q1019 
LFRT 201830Z AUTO 24008KT 200V280 CAVOK 10/09 Q1019 
LFRT 201800Z AUTO 24006KT 190V290 CAVOK 10/09 Q1019 
LFRT 201730Z AUTO 24005KT 180V270 CAVOK 10/09 Q1019 
LFRT 201700Z AUTO 25006KT 210V280 CAVOK 10/08 Q1019 
LFRT 201630Z AUTO 25006KT 210V280 CAVOK 11/08 Q1019 
LFRT 201600Z AUTO 24006KT 210V270 CAVOK 12/09 Q1019 
LFRT 201530Z AUTO 24007KT 210V270 CAVOK 12/09 Q1019 
LFRT 201500Z AUTO 24007KT 160V270 CAVOK 12/09 Q1020 
LFRT 201430Z AUTO 23008KT 180V270 CAVOK 13/09 Q1020 
LFRT 201400Z AUTO 24008KT 190V280 CAVOK 13/09 Q1020 
LFRT 201330Z AUTO 24006KT 160V270 CAVOK 13/09 Q1020 
LFRT 201300Z AUTO 23009KT 200V270 CAVOK 13/09 Q1020 
LFRT 201230Z AUTO 23009KT 200V270 CAVOK 12/09 Q1021 
LFRT 201200Z AUTO 24010KT 200V270 CAVOK 12/09 Q1021 
LFRT 201130Z AUTO 24009KT 210V270 CAVOK 12/09 Q1021 
LFRT 201100Z AUTO 25010KT 190V280 CAVOK 11/09 Q1021 
LFRT 201030Z AUTO 25012KT CAVOK 11/09 Q1022 
LFRT 201000Z AUTO 25008KT 210V280 CAVOK 11/09 Q1022 
LFRT 200930Z AUTO 24007KT 200V290 CAVOK 10/09 Q1022 
LFRT 200900Z AUTO 23005KT 190V280 CAVOK 09/08 Q1022 
LFRT 200830Z AUTO 20003KT 160V240 9999 FEW016 08/07 Q1022   
LFRT 200800Z AUTO VRB02KT 9999 SCT014 07/07 Q1022   
LFRT 200730Z AUTO VRB02KT 9999 BKN014 07/07 Q1022   
LFRT 200700Z AUTO VRB03KT 9999 BKN014 08/07 Q1022   
LFRT 192200Z AUTO 22003KT 8000 SCT036 10/09 Q1025